createdAt,value
2023-05-14T00:02:24.142Z,100.00
2023-05-14T00:04:50.702Z,99.89
2023-05-14T00:07:17.128Z,99.83
2023-05-14T00:09:43.577Z,100.00
2023-05-14T00:12:10.058Z,99.68
2023-05-14T00:14:36.421Z,100.00
2023-05-14T00:17:02.805Z,100.00
2023-05-14T00:19:29.360Z,98.89
2023-05-14T00:21:55.758Z,98.79
2023-05-14T00:24:22.225Z,99.22
2023-05-14T00:26:48.735Z,99.93
2023-05-14T00:29:15.096Z,99.62
2023-05-14T00:31:41.511Z,99.71
2023-05-14T00:34:08.339Z,100.00
2023-05-14T00:36:34.801Z,100.00
2023-05-14T00:39:01.232Z,100.00
2023-05-14T00:41:27.694Z,100.00
2023-05-14T00:43:54.159Z,99.75
2023-05-14T00:46:20.639Z,100.00
2023-05-14T00:48:47.135Z,100.00
2023-05-14T00:51:13.526Z,100.00
2023-05-14T00:53:39.909Z,100.00
2023-05-14T00:56:06.410Z,100.00
2023-05-14T00:58:32.934Z,100.00
2023-05-14T01:00:59.685Z,99.66
2023-05-14T01:03:26.769Z,99.90
2023-05-14T01:06:08.668Z,99.33
2023-05-14T01:08:35.222Z,100.00
2023-05-14T01:11:09.157Z,99.05
2023-05-14T01:13:55.882Z,99.28
2023-05-14T01:16:22.568Z,98.40
2023-05-14T01:18:49.103Z,99.67
2023-05-14T01:21:24.026Z,99.66
2023-05-14T01:23:50.458Z,99.55
2023-05-14T01:26:16.834Z,100.00
2023-05-14T01:28:43.336Z,100.00
2023-05-14T01:31:12.069Z,100.00
2023-05-14T01:33:38.596Z,99.90
2023-05-14T01:36:05.144Z,99.04
2023-05-14T01:38:31.581Z,98.32
2023-05-14T01:40:58.063Z,98.40
2023-05-14T01:43:24.575Z,98.11
2023-05-14T01:45:51.119Z,98.50
2023-05-14T01:48:17.731Z,99.00
2023-05-14T01:50:44.316Z,99.23
2023-05-14T01:53:10.875Z,98.74
2023-05-14T01:55:37.357Z,99.16
2023-05-14T01:58:03.848Z,98.79
2023-05-14T02:00:30.408Z,100.00
2023-05-14T02:02:56.971Z,99.70
2023-05-14T02:05:23.558Z,99.03
2023-05-14T02:07:50.168Z,99.35
2023-05-14T02:10:16.655Z,99.64
2023-05-14T02:12:43.093Z,99.07
2023-05-14T02:15:09.833Z,99.19
2023-05-14T02:17:38.361Z,98.93
2023-05-14T02:20:05.139Z,99.24
2023-05-14T02:22:31.561Z,100.00
2023-05-14T02:24:58.036Z,99.53
2023-05-14T02:27:24.614Z,98.60
2023-05-14T02:29:51.062Z,99.42
2023-05-14T02:32:17.625Z,100.00
2023-05-14T02:34:44.220Z,100.00
2023-05-14T02:37:11.022Z,100.00
2023-05-14T02:39:37.459Z,100.00
2023-05-14T02:42:03.946Z,99.75
2023-05-14T02:44:30.459Z,99.74
2023-05-14T02:46:56.856Z,99.65
2023-05-14T02:49:23.392Z,100.00
2023-05-14T02:51:49.894Z,100.00
2023-05-14T02:54:16.299Z,100.00
2023-05-14T02:56:42.740Z,99.85
2023-05-14T02:59:09.096Z,99.10
2023-05-14T03:01:36.026Z,99.35
2023-05-14T03:04:02.848Z,98.93
2023-05-14T03:06:29.273Z,99.15
2023-05-14T03:08:55.726Z,98.84
2023-05-14T03:11:22.219Z,98.42
2023-05-14T03:13:48.632Z,98.79
2023-05-14T03:16:15.363Z,97.69
2023-05-14T03:18:41.906Z,97.65
2023-05-14T03:21:08.352Z,98.63
2023-05-14T03:23:34.943Z,98.25
2023-05-14T03:26:02.024Z,97.82
2023-05-14T03:28:28.513Z,97.89
2023-05-14T03:30:55.256Z,96.72
2023-05-14T03:33:21.931Z,97.66
2023-05-14T03:35:48.463Z,97.78
2023-05-14T03:38:14.906Z,98.72
2023-05-14T03:40:41.382Z,97.96
2023-05-14T03:43:08.049Z,98.44
2023-05-14T03:45:34.916Z,97.23
2023-05-14T03:48:01.470Z,97.67
2023-05-14T03:50:28.058Z,98.03
2023-05-14T03:52:54.523Z,97.77
2023-05-14T03:55:21.111Z,98.32
2023-05-14T03:57:50.491Z,97.57
2023-05-14T04:00:16.974Z,97.99
2023-05-14T04:02:43.866Z,97.49
2023-05-14T04:05:10.510Z,98.45
2023-05-14T04:07:37.031Z,99.59
2023-05-14T04:10:04.715Z,99.82
2023-05-14T04:12:31.303Z,99.57
2023-05-14T04:14:58.050Z,98.79
2023-05-14T04:17:24.867Z,98.54
2023-05-14T04:19:51.407Z,98.88
2023-05-14T04:22:17.785Z,99.32
2023-05-14T04:24:44.267Z,98.64
2023-05-14T04:27:10.635Z,98.30
2023-05-14T04:29:37.085Z,98.01
2023-05-14T04:32:03.967Z,98.40
2023-05-14T04:34:30.547Z,98.18
2023-05-14T04:36:57.025Z,98.66
2023-05-14T04:39:23.439Z,98.19
2023-05-14T04:41:49.871Z,98.50
2023-05-14T04:44:16.219Z,98.64
2023-05-14T04:46:42.679Z,98.67
2023-05-14T04:49:09.047Z,98.48
2023-05-14T04:51:35.415Z,98.23
2023-05-14T04:54:01.894Z,98.09
2023-05-14T04:56:28.388Z,98.38
2023-05-14T04:58:54.768Z,97.52
2023-05-14T05:01:21.226Z,97.83
2023-05-14T05:03:47.865Z,97.37
2023-05-14T05:06:14.327Z,97.98
2023-05-14T05:08:40.803Z,98.09
2023-05-14T05:11:07.293Z,96.78
2023-05-14T05:13:33.678Z,96.25
2023-05-14T05:16:00.168Z,97.04
2023-05-14T05:18:26.637Z,97.59
2023-05-14T05:20:53.117Z,96.66
2023-05-14T05:23:19.619Z,97.69
2023-05-14T05:25:45.980Z,96.17
2023-05-14T05:28:12.470Z,96.00
2023-05-14T05:30:39.561Z,95.96
2023-05-14T05:33:06.042Z,94.96
2023-05-14T05:35:32.471Z,95.06
2023-05-14T05:38:01.361Z,95.20
2023-05-14T05:40:28.315Z,93.98
2023-05-14T05:42:54.786Z,93.33
2023-05-14T05:45:21.274Z,94.80
2023-05-14T05:47:47.825Z,94.13
2023-05-14T05:50:14.473Z,93.97
2023-05-14T05:52:40.910Z,93.47
2023-05-14T05:55:07.572Z,93.49
2023-05-14T05:57:34.010Z,92.50
2023-05-14T06:00:00.464Z,92.39
2023-05-14T06:02:27.067Z,92.36
2023-05-14T06:04:53.723Z,92.40
2023-05-14T06:07:20.312Z,91.51
2023-05-14T06:09:46.765Z,91.38
2023-05-14T06:12:13.148Z,92.04
2023-05-14T06:14:39.640Z,90.31
2023-05-14T06:17:06.004Z,91.11
2023-05-14T06:19:32.465Z,90.77
2023-05-14T06:21:59.015Z,89.51
2023-05-14T06:24:25.421Z,88.93
2023-05-14T06:26:51.819Z,88.70
2023-05-14T06:29:18.317Z,90.08
2023-05-14T06:31:44.685Z,89.76
2023-05-14T06:34:11.217Z,91.11
2023-05-14T06:36:37.698Z,89.24
2023-05-14T06:39:04.096Z,89.70
2023-05-14T06:41:30.551Z,89.28
2023-05-14T06:43:57.039Z,85.82
2023-05-14T06:46:23.516Z,85.68
2023-05-14T06:48:50.064Z,87.94
2023-05-14T06:51:16.565Z,85.97
2023-05-14T06:53:42.992Z,85.32
2023-05-14T06:56:09.430Z,82.52
2023-05-14T06:58:35.961Z,83.54
2023-05-14T07:01:02.484Z,83.14
2023-05-14T07:03:28.982Z,76.99
2023-05-14T07:05:55.482Z,77.62
2023-05-14T07:08:21.878Z,77.67
2023-05-14T07:10:48.343Z,76.59
2023-05-14T07:13:14.841Z,76.98
2023-05-14T07:15:41.532Z,76.94
2023-05-14T07:18:07.956Z,76.16
2023-05-14T07:20:34.556Z,76.11
2023-05-14T07:23:00.973Z,73.40
2023-05-14T07:25:27.364Z,73.11
2023-05-14T07:27:53.803Z,73.80
2023-05-14T07:30:20.607Z,74.50
2023-05-14T07:32:47.208Z,72.84
2023-05-14T07:35:14.066Z,73.62
2023-05-14T07:37:40.529Z,73.74
2023-05-14T07:40:07.250Z,72.49
2023-05-14T07:42:36.416Z,73.25
2023-05-14T07:45:04.150Z,74.10
2023-05-14T07:47:30.817Z,73.72
2023-05-14T07:49:57.427Z,72.36
2023-05-14T07:52:23.985Z,71.22
2023-05-14T07:54:50.896Z,68.29
2023-05-14T07:57:17.949Z,69.42
2023-05-14T07:59:44.344Z,69.92
2023-05-14T08:02:10.765Z,69.87
2023-05-14T08:04:37.577Z,70.41
2023-05-14T08:07:04.104Z,67.96
2023-05-14T08:09:30.583Z,69.16
2023-05-14T08:11:57.099Z,69.05
2023-05-14T08:14:23.505Z,70.20
2023-05-14T08:16:49.992Z,70.79
2023-05-14T08:19:16.739Z,71.59
2023-05-14T08:21:43.693Z,71.63
2023-05-14T08:24:10.182Z,69.62
2023-05-14T08:26:36.762Z,70.34
2023-05-14T08:29:03.177Z,69.16
2023-05-14T08:31:29.691Z,70.18
2023-05-14T08:33:56.306Z,68.61
2023-05-14T08:36:22.793Z,71.17
2023-05-14T08:38:49.276Z,71.08
2023-05-14T08:41:15.705Z,70.94
2023-05-14T08:43:44.323Z,70.45
2023-05-14T08:46:10.769Z,71.54
2023-05-14T08:48:37.222Z,72.89
2023-05-14T08:51:03.704Z,69.87
2023-05-14T08:53:30.121Z,72.21
2023-05-14T08:55:56.532Z,71.32
2023-05-14T08:58:23.001Z,71.20
2023-05-14T09:00:49.548Z,69.29
2023-05-14T09:03:16.118Z,67.97
2023-05-14T09:05:42.714Z,65.63
2023-05-14T09:08:09.146Z,61.05
2023-05-14T09:10:35.552Z,59.13
2023-05-14T09:13:02.071Z,58.55
2023-05-14T09:15:28.513Z,58.39
2023-05-14T09:17:55.018Z,55.90
2023-05-14T09:20:21.507Z,52.27
2023-05-14T09:22:48.080Z,51.68
2023-05-14T09:25:14.635Z,57.28
2023-05-14T09:27:41.115Z,55.36
2023-05-14T09:30:16.559Z,59.81
2023-05-14T09:32:43.310Z,58.18
2023-05-14T09:35:11.025Z,60.78
2023-05-14T09:37:37.609Z,57.47
2023-05-14T09:40:07.605Z,55.40
2023-05-14T09:42:33.998Z,57.51
2023-05-14T09:45:00.607Z,58.60
2023-05-14T09:47:27.162Z,59.32
2023-05-14T09:49:53.697Z,58.70
2023-05-14T09:52:20.167Z,61.54
2023-05-14T09:54:46.603Z,60.62
2023-05-14T09:57:13.075Z,58.00
2023-05-14T09:59:39.534Z,53.39
2023-05-14T10:02:05.920Z,58.79
2023-05-14T10:04:32.870Z,60.63
2023-05-14T10:06:59.387Z,55.97
2023-05-14T10:09:25.770Z,54.70
2023-05-14T10:11:52.914Z,55.30
2023-05-14T10:14:29.651Z,52.64
2023-05-14T10:16:56.189Z,54.00
2023-05-14T10:19:23.764Z,56.20
2023-05-14T10:21:57.071Z,51.65
2023-05-14T10:24:23.739Z,54.70
2023-05-14T10:26:50.253Z,53.55
2023-05-14T10:29:16.758Z,52.82
2023-05-14T10:31:52.836Z,53.93
2023-05-14T10:34:32.163Z,55.86
2023-05-14T10:37:02.332Z,51.83
2023-05-14T10:39:58.220Z,54.98
2023-05-14T10:42:28.527Z,58.15
2023-05-14T10:44:55.540Z,59.32
2023-05-14T10:47:22.008Z,54.08
2023-05-14T10:49:48.399Z,54.04
2023-05-14T10:52:16.128Z,51.87
2023-05-14T10:54:46.569Z,55.08
2023-05-14T10:57:13.069Z,55.24
2023-05-14T10:59:41.651Z,57.79
2023-05-14T11:02:18.255Z,60.02
2023-05-14T11:04:50.548Z,61.49
2023-05-14T11:07:17.115Z,58.22
2023-05-14T11:09:43.574Z,56.69
2023-05-14T11:12:10.013Z,57.76
2023-05-14T11:14:36.438Z,56.13
2023-05-14T11:17:02.915Z,55.30
2023-05-14T11:19:29.457Z,55.51
2023-05-14T11:21:55.932Z,53.14
2023-05-14T11:24:22.390Z,53.84
2023-05-14T11:26:48.743Z,55.21
2023-05-14T11:29:15.128Z,54.38
2023-05-14T11:31:41.604Z,57.56
2023-05-14T11:34:08.106Z,62.29
2023-05-14T11:36:36.215Z,56.09
2023-05-14T11:39:02.768Z,59.00
2023-05-14T11:41:29.160Z,58.42
2023-05-14T11:43:55.535Z,56.42
2023-05-14T11:46:22.130Z,54.31
2023-05-14T11:48:48.569Z,55.37
2023-05-14T11:51:15.002Z,51.90
2023-05-14T11:53:41.517Z,53.31
2023-05-14T11:56:09.677Z,56.59
2023-05-14T11:58:36.472Z,55.19
2023-05-14T12:01:02.995Z,54.37
2023-05-14T12:03:30.325Z,56.28
2023-05-14T12:05:57.031Z,56.26
2023-05-14T12:08:25.884Z,52.99
2023-05-14T12:10:55.379Z,56.22
2023-05-14T12:13:22.107Z,54.49
2023-05-14T12:15:48.705Z,55.95
2023-05-14T12:18:23.803Z,58.92
2023-05-14T12:20:51.538Z,58.33
2023-05-14T12:23:27.790Z,55.82
2023-05-14T12:25:54.316Z,54.53
2023-05-14T12:28:20.705Z,55.93
2023-05-14T12:30:47.201Z,57.46
2023-05-14T12:33:13.706Z,57.68
2023-05-14T12:35:40.195Z,57.29
2023-05-14T12:38:06.787Z,61.27
2023-05-14T12:40:33.282Z,61.27
2023-05-14T12:42:59.658Z,57.20
2023-05-14T12:45:26.242Z,58.87
2023-05-14T12:47:52.824Z,60.15
2023-05-14T12:50:19.356Z,57.27
2023-05-14T12:52:45.805Z,57.67
2023-05-14T12:55:12.230Z,59.04
2023-05-14T12:57:39.113Z,59.88
2023-05-14T13:00:06.418Z,62.31
2023-05-14T13:02:33.089Z,61.43
2023-05-14T13:05:08.921Z,63.57
2023-05-14T13:07:35.519Z,67.66
2023-05-14T13:10:02.017Z,67.88
2023-05-14T13:12:28.383Z,66.21
2023-05-14T13:14:54.912Z,69.10
2023-05-14T13:17:21.426Z,68.90
2023-05-14T13:19:47.905Z,70.00
2023-05-14T13:22:14.415Z,71.58
2023-05-14T13:24:40.863Z,73.87
2023-05-14T13:27:07.277Z,76.12
2023-05-14T13:29:33.692Z,76.81
2023-05-14T13:32:00.238Z,75.88
2023-05-14T13:34:26.614Z,76.54
2023-05-14T13:36:53.051Z,77.65
2023-05-14T13:39:19.461Z,79.91
2023-05-14T13:41:45.890Z,79.32
2023-05-14T13:44:12.367Z,78.93
2023-05-14T13:46:38.803Z,79.07
2023-05-14T13:49:05.292Z,82.26
2023-05-14T13:51:31.821Z,81.78
2023-05-14T13:53:58.236Z,81.49
2023-05-14T13:56:24.687Z,83.13
2023-05-14T13:58:51.238Z,86.36
2023-05-14T14:01:17.658Z,88.06
2023-05-14T14:03:44.096Z,88.24
2023-05-14T14:06:10.667Z,90.56
2023-05-14T14:08:37.112Z,91.78
2023-05-14T14:11:03.546Z,91.35
2023-05-14T14:13:29.997Z,90.73
2023-05-14T14:15:56.454Z,90.55
2023-05-14T14:18:22.848Z,90.34
2023-05-14T14:20:49.351Z,91.76
2023-05-14T14:23:15.881Z,91.57
2023-05-14T14:25:42.418Z,93.57
2023-05-14T14:28:08.842Z,94.68
2023-05-14T14:30:35.475Z,93.72
2023-05-14T14:33:01.960Z,94.05
2023-05-14T14:35:28.516Z,94.40
2023-05-14T14:37:54.930Z,92.40
2023-05-14T14:40:21.445Z,92.40
2023-05-14T14:42:48.035Z,92.63
2023-05-14T14:45:15.562Z,92.76
2023-05-14T14:47:43.094Z,93.59
2023-05-14T14:50:09.704Z,94.79
2023-05-14T14:52:36.133Z,94.11
2023-05-14T14:55:02.564Z,92.81
2023-05-14T14:57:28.993Z,93.59
2023-05-14T14:59:55.356Z,94.48
2023-05-14T15:02:21.983Z,96.21
2023-05-14T15:04:48.543Z,96.73
2023-05-14T15:07:15.210Z,96.33
2023-05-14T15:09:41.587Z,94.99
2023-05-14T15:12:08.076Z,92.41
2023-05-14T15:14:34.690Z,92.61
2023-05-14T15:17:01.220Z,92.77
2023-05-14T15:19:28.836Z,92.41
2023-05-14T15:21:55.323Z,93.31
2023-05-14T15:24:21.797Z,94.11
2023-05-14T15:26:48.348Z,94.39
2023-05-14T15:29:14.739Z,93.78
2023-05-14T15:31:41.422Z,95.00
2023-05-14T15:34:08.036Z,92.90
2023-05-14T15:36:34.528Z,93.75
2023-05-14T15:39:01.081Z,95.84
2023-05-14T15:41:27.549Z,94.97
2023-05-14T15:43:54.026Z,95.94
2023-05-14T15:46:20.429Z,96.01
2023-05-14T15:48:46.961Z,96.58
2023-05-14T15:51:13.636Z,95.82
2023-05-14T15:53:40.096Z,96.26
2023-05-14T15:56:06.764Z,95.42
2023-05-14T15:58:33.237Z,95.40
2023-05-14T16:00:59.762Z,95.22
2023-05-14T16:03:26.385Z,95.23
2023-05-14T16:05:52.965Z,95.69
2023-05-14T16:08:19.466Z,96.99
2023-05-14T16:10:45.946Z,95.86
2023-05-14T16:13:12.558Z,96.15
2023-05-14T16:15:39.388Z,95.61
2023-05-14T16:18:06.071Z,96.47
2023-05-14T16:20:32.681Z,96.34
2023-05-14T16:22:59.166Z,95.81
2023-05-14T16:25:25.606Z,94.71
2023-05-14T16:27:52.026Z,94.47
2023-05-14T16:30:18.483Z,96.35
2023-05-14T16:32:45.013Z,94.40
2023-05-14T16:35:11.535Z,93.86
2023-05-14T16:37:38.248Z,93.94
2023-05-14T16:40:04.894Z,94.94
2023-05-14T16:42:31.500Z,94.79
2023-05-14T16:44:57.883Z,95.20
2023-05-14T16:47:24.303Z,94.55
2023-05-14T16:49:50.895Z,93.96
2023-05-14T16:52:17.382Z,95.84
2023-05-14T16:54:43.847Z,95.02
2023-05-14T16:57:10.362Z,94.40
2023-05-14T16:59:36.721Z,94.10
2023-05-14T17:02:03.279Z,95.58
2023-05-14T17:04:30.630Z,94.33
2023-05-14T17:06:57.123Z,95.08
2023-05-14T17:09:23.650Z,95.80
2023-05-14T17:11:50.299Z,95.62
2023-05-14T17:14:16.740Z,94.97
2023-05-14T17:16:45.476Z,94.95
2023-05-14T17:19:12.095Z,96.11
2023-05-14T17:21:38.673Z,96.47
2023-05-14T17:24:05.317Z,97.22
2023-05-14T17:26:31.875Z,98.31
2023-05-14T17:28:58.291Z,98.76
2023-05-14T17:31:24.873Z,100.00
2023-05-14T17:33:51.381Z,100.00
2023-05-14T17:36:17.784Z,100.00
2023-05-14T17:38:44.239Z,100.00
2023-05-14T17:41:10.699Z,99.60
2023-05-14T17:43:37.100Z,99.78
2023-05-14T17:46:03.813Z,99.85
2023-05-14T17:48:30.392Z,99.07
2023-05-14T17:50:56.847Z,98.81
2023-05-14T17:53:23.289Z,99.33
2023-05-14T17:55:49.779Z,99.03
2023-05-14T17:58:16.326Z,98.80
2023-05-14T18:00:42.948Z,99.12
2023-05-14T18:03:09.548Z,99.29
2023-05-14T18:05:36.092Z,99.84
2023-05-14T18:08:02.605Z,99.27
2023-05-14T18:10:29.829Z,98.66
2023-05-14T18:12:56.364Z,98.19
2023-05-14T18:15:22.933Z,97.98
2023-05-14T18:17:49.603Z,97.66
2023-05-14T18:20:16.153Z,99.66
2023-05-14T18:22:42.604Z,100.00
2023-05-14T18:25:09.244Z,100.00
2023-05-14T18:27:35.640Z,100.00
2023-05-14T18:30:02.018Z,100.00
2023-05-14T18:32:28.782Z,100.00
2023-05-14T18:34:55.233Z,100.00
2023-05-14T18:37:21.634Z,100.00
2023-05-14T18:39:48.082Z,100.00
2023-05-14T18:42:14.534Z,100.00
2023-05-14T18:44:41.244Z,100.00
2023-05-14T18:47:07.724Z,100.00
2023-05-14T18:49:34.173Z,100.00
2023-05-14T18:52:00.581Z,100.00
2023-05-14T18:54:27.090Z,100.00
2023-05-14T18:56:53.488Z,100.00
2023-05-14T18:59:19.877Z,100.00
2023-05-14T19:01:46.405Z,100.00
2023-05-14T19:04:12.811Z,100.00
2023-05-14T19:06:39.327Z,100.00
2023-05-14T19:09:05.877Z,100.00
2023-05-14T19:11:32.291Z,100.00
2023-05-14T19:13:58.795Z,100.00
2023-05-14T19:16:25.342Z,100.00
2023-05-14T19:18:51.893Z,100.00
2023-05-14T19:21:18.384Z,100.00
2023-05-14T19:23:44.933Z,100.00
2023-05-14T19:26:11.337Z,100.00
2023-05-14T19:28:37.831Z,100.00
2023-05-14T19:31:04.720Z,100.00
2023-05-14T19:33:31.088Z,100.00
2023-05-14T19:35:57.629Z,100.00
2023-05-14T19:38:24.230Z,100.00
2023-05-14T19:40:50.700Z,100.00
2023-05-14T19:43:17.228Z,100.00
2023-05-14T19:45:43.737Z,100.00
2023-05-14T19:48:10.169Z,100.00
2023-05-14T19:50:36.787Z,100.00
2023-05-14T19:53:03.260Z,99.97
2023-05-14T19:55:29.711Z,100.00
2023-05-14T19:57:56.096Z,100.00
2023-05-14T20:00:22.725Z,100.00
2023-05-14T20:02:49.584Z,100.00
2023-05-14T20:05:16.142Z,100.00
2023-05-14T20:07:42.632Z,100.00
2023-05-14T20:10:09.435Z,100.00
2023-05-14T20:12:35.936Z,100.00
2023-05-14T20:15:02.370Z,100.00
2023-05-14T20:17:28.913Z,100.00
2023-05-14T20:19:55.392Z,100.00
2023-05-14T20:22:21.872Z,100.00
2023-05-14T20:24:48.237Z,100.00
2023-05-14T20:27:14.631Z,100.00
2023-05-14T20:29:41.072Z,100.00
2023-05-14T20:32:07.561Z,100.00
2023-05-14T20:34:34.036Z,100.00
2023-05-14T20:37:00.573Z,100.00
2023-05-14T20:39:26.941Z,100.00
2023-05-14T20:41:53.344Z,100.00
2023-05-14T20:44:20.566Z,100.00
2023-05-14T20:46:47.341Z,100.00
2023-05-14T20:49:13.970Z,100.00
2023-05-14T20:51:40.495Z,100.00
2023-05-14T20:54:07.139Z,100.00
2023-05-14T20:56:33.603Z,100.00
2023-05-14T20:59:00.153Z,100.00
2023-05-14T21:01:26.849Z,100.00
2023-05-14T21:03:53.533Z,100.00
2023-05-14T21:06:20.164Z,100.00
2023-05-14T21:08:46.762Z,100.00
2023-05-14T21:11:13.312Z,100.00
2023-05-14T21:13:39.814Z,100.00
2023-05-14T21:16:06.340Z,100.00
2023-05-14T21:18:32.909Z,100.00
2023-05-14T21:20:59.543Z,100.00
2023-05-14T21:23:26.034Z,100.00
2023-05-14T21:25:52.542Z,100.00
2023-05-14T21:28:19.029Z,100.00
2023-05-14T21:30:45.394Z,100.00
2023-05-14T21:33:12.061Z,100.00
2023-05-14T21:35:38.664Z,100.00
2023-05-14T21:38:05.184Z,100.00
2023-05-14T21:40:31.550Z,100.00
2023-05-14T21:42:58.039Z,100.00
2023-05-14T21:45:24.429Z,100.00
2023-05-14T21:47:50.970Z,100.00
2023-05-14T21:50:17.488Z,100.00
2023-05-14T21:52:43.977Z,100.00
2023-05-14T21:55:10.507Z,100.00
2023-05-14T21:57:37.003Z,100.00
2023-05-14T22:00:03.781Z,100.00
2023-05-14T22:02:30.516Z,100.00
2023-05-14T22:04:56.998Z,100.00
2023-05-14T22:07:23.502Z,100.00
2023-05-14T22:09:50.304Z,100.00
2023-05-14T22:12:16.903Z,100.00
2023-05-14T22:14:43.313Z,100.00
2023-05-14T22:17:09.720Z,100.00
2023-05-14T22:19:36.213Z,100.00
2023-05-14T22:22:02.725Z,100.00
2023-05-14T22:24:29.211Z,100.00
2023-05-14T22:26:55.699Z,100.00
2023-05-14T22:29:22.142Z,100.00
2023-05-14T22:31:48.768Z,100.00
2023-05-14T22:34:15.477Z,100.00
2023-05-14T22:36:41.932Z,100.00
2023-05-14T22:39:08.879Z,100.00
2023-05-14T22:41:36.164Z,100.00
2023-05-14T22:44:02.531Z,100.00
2023-05-14T22:46:29.582Z,100.00
2023-05-14T22:48:56.161Z,100.00
2023-05-14T22:51:22.517Z,100.00
2023-05-14T22:53:49.021Z,100.00
2023-05-14T22:56:15.506Z,100.00
2023-05-14T22:58:41.977Z,100.00
2023-05-14T23:01:08.345Z,100.00
2023-05-14T23:03:34.824Z,100.00
2023-05-14T23:06:01.472Z,100.00
2023-05-14T23:08:27.846Z,100.00
2023-05-14T23:10:54.300Z,100.00
2023-05-14T23:13:20.705Z,100.00
2023-05-14T23:15:47.077Z,100.00
2023-05-14T23:18:13.573Z,100.00
2023-05-14T23:20:40.181Z,100.00
2023-05-14T23:23:06.669Z,100.00
2023-05-14T23:25:33.161Z,100.00
2023-05-14T23:27:59.700Z,100.00
2023-05-14T23:30:26.203Z,100.00
2023-05-14T23:32:52.725Z,100.00
2023-05-14T23:35:19.200Z,100.00
2023-05-14T23:37:45.701Z,100.00
2023-05-14T23:40:12.248Z,100.00
2023-05-14T23:42:38.925Z,100.00
2023-05-14T23:45:05.515Z,100.00
2023-05-14T23:47:32.102Z,100.00
2023-05-14T23:49:58.630Z,100.00
2023-05-14T23:52:25.054Z,100.00
2023-05-14T23:54:51.523Z,100.00
2023-05-14T23:57:17.896Z,100.00
2023-05-14T23:59:44.310Z,100.00
